Delta Virtual Airport Information Service

Munich Airport

ICAO: EDDM Country: Germany
Latitude: 48.3538 Longitude: 11.7861
Latest Arrival : KLM332371 (EHAM-EDDM) Latest Departure : AAL717 (EDDM-KCLT)


WX CaptureLIVE
Data provided by noaa.gov | Fetched at 05:02:40

METAR : EDDM 300950Z 36003KT 330V090 9999 OVC018 14/09 Q1017 NOSIG

TAF : EDDM 300500Z 3006/0112 22003KT 9999 SCT020 BKN035 BECMG 3010/3012 06005KT BECMG 3022/3024 1200 BCFG BECMG 0100/0102 0500 FG VV001 BECMG 0106/0108 3500 BR BKN002 BECMG 0108/0110 9999 SCT013


Runway Data for EDDM
Data provided by openaviationdata.com

Runway ID Mag Var Hdg Length Elevation Surface ILS Freq ILS Id ILS Slope
08L 1 82° 13097 ft 1486 ft Concrete 109.5 IMNE 3
08R 1 82° 13097 ft 1486 ft Concrete 109.3 IMSE 3
26L 1 262° 13097 ft 1486 ft Concrete 108.3 IMSW 3
26R 1 262° 13097 ft 1486 ft Concrete 108.7 IMNW 3

Munich Airport, Germany
Use only for reference purposes



Not for navigational purposes.